Alpena, Michigan
Current Conditions -  °F | °C
As of 4:03 AM on Thursday 23 Oct 2014 (Local Time) from KAPN Reporting Station
Haze Haze  
Wind Chill: -3°   Ceiling: 100
Heat Index: -3°   Visibility: 4mi
Dew Point: -4°   Wind: 0mph
Humidity: 92%   Direction: NA
Pressure: 30.27"   Gusts: NA
Location:  45.06°N, 83.44°W
Report Text: KAPN 230803Z AUTO 00000KT 4SM BR BKN001 M03/M04 A3027 RMK AO2 T10331044
Loading
Personal Weather Stations






























Interactive Weather Map
Tropical Storm Tracking
New forecast layout! Learn more

10-Day Weather Forecast

Advertisements
Track Severe Weather on mobile